<?xml version="1.0" encoding="UTF-8" standalone="no" ?>
<gpx xmlns="http://www.topografix.com/GPX/1/1" xmlns:xsi="http://www.w3.org/2001/XMLSchema-instance" xsi:schemaLocation="http://www.topografix.com/GPX/1/1 http://www.topografix.com/GPX/1/1/gpx.xsd" version="1.1" creator="VisuGPX - https://www.visugpx.com">
  <metadata>
    <name>GR20 Sud - Casquette et sac à dos avec variantes</name>
  </metadata>
  <trk>
    <name><![CDATA[Etape 15 - Asinau > Paliri (Variante Alpine)]]></name>
    <extensions>
      <line xmlns="http://www.topografix.com/GPX/gpx_style/0/2">
        <color>000088</color>
        <width>4</width>
      </line>
    </extensions>
    <trkseg>
      <trkpt lat="41.84143" lon="9.21427">
        <ele>1596.01</ele>
        <time>2018-06-25T04:28:35Z</time>
      </trkpt>
      <trkpt lat="41.84147" lon="9.21424">
        <ele>1587.69</ele>
        <time>2018-06-25T04:30:03Z</time>
      </trkpt>
      <trkpt lat="41.84059" lon="9.21281">
        <ele>1576.37</ele>
        <time>2018-06-25T04:35:05Z</time>
      </trkpt>
      <trkpt lat="41.83923" lon="9.21161">
        <ele>1552.38</ele>
        <time>2018-06-25T04:40:04Z</time>
      </trkpt>
      <trkpt lat="41.8375" lon="9.21185">
        <ele>1491.38</ele>
        <time>2018-06-25T04:45:03Z</time>
      </trkpt>
      <trkpt lat="41.83639" lon="9.21337">
        <ele>1419.34</ele>
        <time>2018-06-25T04:50:04Z</time>
      </trkpt>
      <trkpt lat="41.83452" lon="9.21412">
        <ele>1379.07</ele>
        <time>2018-06-25T04:55:05Z</time>
      </trkpt>
      <trkpt lat="41.83474" lon="9.21447">
        <ele>1418.05</ele>
        <time>2018-06-25T05:00:04Z</time>
      </trkpt>
      <trkpt lat="41.83344" lon="9.21418">
        <ele>1385.69</ele>
        <time>2018-06-25T05:05:04Z</time>
      </trkpt>
      <trkpt lat="41.83147" lon="9.21314">
        <ele>1371.96</ele>
        <time>2018-06-25T05:10:03Z</time>
      </trkpt>
      <trkpt lat="41.82927" lon="9.21224">
        <ele>1428.44</ele>
        <time>2018-06-25T05:15:05Z</time>
      </trkpt>
      <trkpt lat="41.82762" lon="9.21199">
        <ele>1405.08</ele>
        <time>2018-06-25T05:20:05Z</time>
      </trkpt>
      <trkpt lat="41.82634" lon="9.21221">
        <ele>1446.67</ele>
        <time>2018-06-25T05:25:04Z</time>
      </trkpt>
      <trkpt lat="41.82372" lon="9.21103">
        <ele>1442.15</ele>
        <time>2018-06-25T05:30:03Z</time>
      </trkpt>
      <trkpt lat="41.82343" lon="9.21096">
        <ele>1487.76</ele>
        <time>2018-06-25T05:31:27Z</time>
      </trkpt>
      <trkpt lat="41.82358" lon="9.21086">
        <ele>1406.62</ele>
        <time>2018-06-25T05:32:34Z</time>
      </trkpt>
      <trkpt lat="41.82246" lon="9.21031">
        <ele>1414.93</ele>
        <time>2018-06-25T05:35:05Z</time>
      </trkpt>
      <trkpt lat="41.82123" lon="9.20969">
        <ele>1350.69</ele>
        <time>2018-06-25T05:38:09Z</time>
      </trkpt>
      <trkpt lat="41.82101" lon="9.2097">
        <ele>1424.2</ele>
        <time>2018-06-25T05:38:59Z</time>
      </trkpt>
      <trkpt lat="41.82043" lon="9.20942">
        <ele>1422.2</ele>
        <time>2018-06-25T05:40:04Z</time>
      </trkpt>
      <trkpt lat="41.81833" lon="9.20868">
        <ele>1387.14</ele>
        <time>2018-06-25T05:45:04Z</time>
      </trkpt>
      <trkpt lat="41.81784" lon="9.20819">
        <ele>1373.72</ele>
        <time>2018-06-25T05:54:12Z</time>
      </trkpt>
      <trkpt lat="41.81723" lon="9.20899">
        <ele>1418.21</ele>
        <time>2018-06-25T06:00:03Z</time>
      </trkpt>
      <trkpt lat="41.8164" lon="9.21021">
        <ele>1481.64</ele>
        <time>2018-06-25T06:05:03Z</time>
      </trkpt>
      <trkpt lat="41.8161" lon="9.21186">
        <ele>1519.7</ele>
        <time>2018-06-25T06:10:03Z</time>
      </trkpt>
      <trkpt lat="41.81482" lon="9.21166">
        <ele>1567.17</ele>
        <time>2018-06-25T06:15:03Z</time>
      </trkpt>
      <trkpt lat="41.81409" lon="9.21277">
        <ele>1625.79</ele>
        <time>2018-06-25T06:20:03Z</time>
      </trkpt>
      <trkpt lat="41.81328" lon="9.21322">
        <ele>1652.03</ele>
        <time>2018-06-25T06:25:04Z</time>
      </trkpt>
      <trkpt lat="41.81233" lon="9.21407">
        <ele>1701.37</ele>
        <time>2018-06-25T06:30:03Z</time>
      </trkpt>
      <trkpt lat="41.8117" lon="9.21405">
        <ele>1712.44</ele>
        <time>2018-06-25T06:35:03Z</time>
      </trkpt>
      <trkpt lat="41.81152" lon="9.21403">
        <ele>1749.44</ele>
        <time>2018-06-25T06:40:04Z</time>
      </trkpt>
      <trkpt lat="41.81066" lon="9.21401">
        <ele>1741.46</ele>
        <time>2018-06-25T06:45:04Z</time>
      </trkpt>
      <trkpt lat="41.80988" lon="9.21403">
        <ele>1724.01</ele>
        <time>2018-06-25T06:50:04Z</time>
      </trkpt>
      <trkpt lat="41.80966" lon="9.21398">
        <ele>1719.31</ele>
        <time>2018-06-25T06:55:03Z</time>
      </trkpt>
      <trkpt lat="41.80966" lon="9.21402">
        <ele>1706.03</ele>
        <time>2018-06-25T07:00:04Z</time>
      </trkpt>
      <trkpt lat="41.80969" lon="9.21385">
        <ele>1701.2</ele>
        <time>2018-06-25T07:05:04Z</time>
      </trkpt>
      <trkpt lat="41.80769" lon="9.21369">
        <ele>1661.25</ele>
        <time>2018-06-25T07:10:04Z</time>
      </trkpt>
      <trkpt lat="41.80643" lon="9.21428">
        <ele>1618.57</ele>
        <time>2018-06-25T07:15:03Z</time>
      </trkpt>
      <trkpt lat="41.80572" lon="9.21487">
        <ele>1588.81</ele>
        <time>2018-06-25T07:20:04Z</time>
      </trkpt>
      <trkpt lat="41.80449" lon="9.2149">
        <ele>1589.07</ele>
        <time>2018-06-25T07:25:03Z</time>
      </trkpt>
      <trkpt lat="41.80333" lon="9.2138">
        <ele>1513.41</ele>
        <time>2018-06-25T07:30:06Z</time>
      </trkpt>
      <trkpt lat="41.80285" lon="9.21506">
        <ele>1522.46</ele>
        <time>2018-06-25T07:35:03Z</time>
      </trkpt>
      <trkpt lat="41.80227" lon="9.21504">
        <ele>1505.68</ele>
        <time>2018-06-25T07:40:03Z</time>
      </trkpt>
      <trkpt lat="41.80183" lon="9.2154">
        <ele>1504.13</ele>
        <time>2018-06-25T07:45:04Z</time>
      </trkpt>
      <trkpt lat="41.80136" lon="9.21586">
        <ele>1451.43</ele>
        <time>2018-06-25T07:50:05Z</time>
      </trkpt>
      <trkpt lat="41.8006" lon="9.21667">
        <ele>1468.84</ele>
        <time>2018-06-25T07:55:03Z</time>
      </trkpt>
      <trkpt lat="41.80027" lon="9.21753">
        <ele>1518.35</ele>
        <time>2018-06-25T08:00:05Z</time>
      </trkpt>
      <trkpt lat="41.80009" lon="9.21814">
        <ele>1481.89</ele>
        <time>2018-06-25T08:05:04Z</time>
      </trkpt>
      <trkpt lat="41.7993" lon="9.21809">
        <ele>1438.37</ele>
        <time>2018-06-25T08:10:04Z</time>
      </trkpt>
      <trkpt lat="41.7987" lon="9.21793">
        <ele>1375.44</ele>
        <time>2018-06-25T08:15:05Z</time>
      </trkpt>
      <trkpt lat="41.79814" lon="9.21988">
        <ele>1337.41</ele>
        <time>2018-06-25T08:20:03Z</time>
      </trkpt>
      <trkpt lat="41.79755" lon="9.22075">
        <ele>1264.18</ele>
        <time>2018-06-25T08:25:03Z</time>
      </trkpt>
      <trkpt lat="41.79707" lon="9.22211">
        <ele>1318.26</ele>
        <time>2018-06-25T08:30:05Z</time>
      </trkpt>
      <trkpt lat="41.79591" lon="9.22561">
        <ele>1275.31</ele>
        <time>2018-06-25T08:35:03Z</time>
      </trkpt>
      <trkpt lat="41.79612" lon="9.22586">
        <ele>1271.07</ele>
        <time>2018-06-25T08:40:03Z</time>
      </trkpt>
      <trkpt lat="41.79614" lon="9.22594">
        <ele>1271.53</ele>
        <time>2018-06-25T08:40:55Z</time>
      </trkpt>
      <trkpt lat="41.79635" lon="9.22571">
        <ele>1278.53</ele>
        <time>2018-06-25T10:20:06Z</time>
      </trkpt>
      <trkpt lat="41.79517" lon="9.22833">
        <ele>1247.91</ele>
        <time>2018-06-25T10:25:02Z</time>
      </trkpt>
      <trkpt lat="41.79529" lon="9.22841">
        <ele>1229.38</ele>
        <time>2018-06-25T10:30:03Z</time>
      </trkpt>
      <trkpt lat="41.79504" lon="9.22906">
        <ele>1226.34</ele>
        <time>2018-06-25T10:35:04Z</time>
      </trkpt>
      <trkpt lat="41.79461" lon="9.22981">
        <ele>1240.5</ele>
        <time>2018-06-25T10:40:02Z</time>
      </trkpt>
      <trkpt lat="41.79207" lon="9.2313">
        <ele>1236.04</ele>
        <time>2018-06-25T10:45:03Z</time>
      </trkpt>
      <trkpt lat="41.79082" lon="9.23447">
        <ele>1236.45</ele>
        <time>2018-06-25T10:50:02Z</time>
      </trkpt>
      <trkpt lat="41.78948" lon="9.23578">
        <ele>1151.03</ele>
        <time>2018-06-25T10:55:02Z</time>
      </trkpt>
      <trkpt lat="41.78943" lon="9.23677">
        <ele>1148.14</ele>
        <time>2018-06-25T11:00:02Z</time>
      </trkpt>
      <trkpt lat="41.78889" lon="9.23851">
        <ele>1059.49</ele>
        <time>2018-06-25T11:05:01Z</time>
      </trkpt>
      <trkpt lat="41.7881" lon="9.23876">
        <ele>1050.72</ele>
        <time>2018-06-25T11:10:03Z</time>
      </trkpt>
      <trkpt lat="41.78876" lon="9.24107">
        <ele>1092.76</ele>
        <time>2018-06-25T11:15:02Z</time>
      </trkpt>
      <trkpt lat="41.78915" lon="9.24304">
        <ele>1123.77</ele>
        <time>2018-06-25T11:20:03Z</time>
      </trkpt>
      <trkpt lat="41.79012" lon="9.24516">
        <ele>1148.27</ele>
        <time>2018-06-25T11:25:04Z</time>
      </trkpt>
      <trkpt lat="41.79124" lon="9.24704">
        <ele>1190.57</ele>
        <time>2018-06-25T11:30:03Z</time>
      </trkpt>
      <trkpt lat="41.79114" lon="9.24806">
        <ele>1219.01</ele>
        <time>2018-06-25T11:35:02Z</time>
      </trkpt>
      <trkpt lat="41.79037" lon="9.24847">
        <ele>1236.17</ele>
        <time>2018-06-25T11:40:02Z</time>
      </trkpt>
      <trkpt lat="41.79005" lon="9.24916">
        <ele>1184.51</ele>
        <time>2018-06-25T11:45:03Z</time>
      </trkpt>
      <trkpt lat="41.78983" lon="9.24905">
        <ele>1168.29</ele>
        <time>2018-06-25T11:45:53Z</time>
      </trkpt>
      <trkpt lat="41.78981" lon="9.24924">
        <ele>1164.75</ele>
        <time>2018-06-25T11:50:06Z</time>
      </trkpt>
      <trkpt lat="41.79037" lon="9.25005">
        <ele>1109.54</ele>
        <time>2018-06-25T11:55:03Z</time>
      </trkpt>
      <trkpt lat="41.7913" lon="9.25104">
        <ele>1080.56</ele>
        <time>2018-06-25T12:00:05Z</time>
      </trkpt>
      <trkpt lat="41.79229" lon="9.25354">
        <ele>1032.63</ele>
        <time>2018-06-25T12:05:13Z</time>
      </trkpt>
      <trkpt lat="41.79194" lon="9.25641">
        <ele>1060.71</ele>
        <time>2018-06-25T12:10:02Z</time>
      </trkpt>
      <trkpt lat="41.79388" lon="9.25814">
        <ele>1053.05</ele>
        <time>2018-06-25T12:15:02Z</time>
      </trkpt>
      <trkpt lat="41.7941" lon="9.25971">
        <ele>1125.31</ele>
        <time>2018-06-25T12:20:04Z</time>
      </trkpt>
      <trkpt lat="41.79409" lon="9.26012">
        <ele>1100.66</ele>
        <time>2018-06-25T12:30:01Z</time>
      </trkpt>
    </trkseg>
  </trk>
</gpx>